Time;durP1;ratioP1;P1;durP2;ratioP2;P2;SDS_P1;SDS_P2;PMS_P1;PMS_P2;Temp;Humidity;BMP_temperature;BMP_pressure;BME280_temperature;BME280_humidity;BME280_pressure;Samples;Min_cycle;Max_cycle;Signal;HPM_P1;HPM_P2
2022/10/08 00:00:00;;;;;;;16.25;10.68;;;;;;;27.71;43.86;101252.28;5049635;28;20049;-78
2022/10/08 00:02:29;;;;;;;13.98;10.55;;;;;;;27.68;43.61;101252.38;5048609;28;20052;-74
2022/10/08 00:04:58;;;;;;;18.30;11.07;;;;;;;27.63;43.60;101243.69;5041959;28;20486;-72
2022/10/08 00:07:26;;;;;;;16.75;11.02;;;;;;;27.61;43.54;101241.09;5036107;28;20476;-71
2022/10/08 00:09:57;;;;;;;20.15;9.48;;;;;;;27.56;47.23;101248.34;5039391;28;20511;-71
2022/10/08 00:12:25;;;;;;;18.23;10.20;;;;;;;27.44;47.27;101240.78;5039399;28;20707;-71
2022/10/08 00:14:54;;;;;;;20.50;10.98;;;;;;;27.34;45.16;101241.06;5034944;28;20045;-71
2022/10/08 00:17:23;;;;;;;22.52;11.43;;;;;;;27.29;44.39;101242.16;5037426;28;20114;-74
2022/10/08 00:19:53;;;;;;;17.73;12.20;;;;;;;27.21;44.17;101237.06;5032741;28;20060;-72
2022/10/08 00:22:21;;;;;;;17.40;10.90;;;;;;;27.12;45.15;101235.56;5045051;28;20056;-73
2022/10/08 00:24:52;;;;;;;19.52;10.90;;;;;;;27.08;48.60;101238.38;5039734;28;20565;-73
2022/10/08 00:27:24;;;;;;;14.15;9.43;;;;;;;26.95;49.89;101233.41;5040828;28;20132;-73
2022/10/08 00:30:15;;;;;;;20.30;10.00;;;;;;;26.84;49.05;101224.91;5041037;27;20056;-73
2022/10/08 00:32:44;;;;;;;19.08;10.00;;;;;;;26.77;49.10;101225.16;5040980;28;20536;-73
2022/10/08 00:35:13;;;;;;;17.83;9.98;;;;;;;26.70;49.23;101230.66;5042480;28;20590;-70
2022/10/08 00:37:41;;;;;;;15.02;9.52;;;;;;;26.60;49.74;101231.00;5039248;28;20064;-71
2022/10/08 00:40:11;;;;;;;21.90;10.98;;;;;;;26.48;50.37;101230.41;5041898;28;20642;-71
2022/10/08 00:42:41;;;;;;;15.98;10.23;;;;;;;26.41;51.67;101223.53;5040901;28;20048;-70
2022/10/08 00:45:13;;;;;;;21.55;10.43;;;;;;;26.31;50.77;101222.06;5040178;28;20124;-71
2022/10/08 00:47:45;;;;;;;20.15;10.35;;;;;;;26.23;51.52;101229.38;5044286;28;20096;-71
2022/10/08 00:50:20;;;;;;;19.23;10.77;;;;;;;26.16;50.88;101219.81;5038629;28;20053;-71
2022/10/08 00:52:51;;;;;;;20.38;10.77;;;;;;;26.09;50.75;101217.38;5045586;28;20115;-71
2022/10/08 00:55:23;;;;;;;17.88;9.95;;;;;;;26.05;51.25;101213.03;5036664;28;20103;-70
2022/10/08 00:57:53;;;;;;;20.85;10.73;;;;;;;25.94;52.63;101212.47;5041864;28;20049;-71
2022/10/08 01:00:24;;;;;;;19.60;10.75;;;;;;;25.82;52.53;101211.00;5038178;28;20049;-71
2022/10/08 01:02:52;;;;;;;15.55;10.80;;;;;;;25.69;52.61;101210.44;5045529;28;20088;-71
2022/10/08 01:05:31;;;;;;;16.92;10.60;;;;;;;25.61;52.96;101217.72;5045458;28;20053;-71
2022/10/08 01:08:10;;;;;;;18.00;10.20;;;;;;;25.52;53.42;101219.72;5044691;28;20060;-70
2022/10/08 01:10:48;;;;;;;21.50;10.43;;;;;;;25.43;53.94;101220.84;5035293;28;20049;-70
2022/10/08 01:13:32;;;;;;;15.15;9.85;;;;;;;25.32;54.57;101218.44;5033203;28;20489;-71
2022/10/08 01:16:06;;;;;;;16.98;10.88;;;;;;;25.20;54.80;101219.63;5036808;28;20053;-71
2022/10/08 01:18:46;;;;;;;16.02;10.32;;;;;;;25.12;54.73;101218.88;5047857;28;20453;-71
2022/10/08 01:21:21;;;;;;;18.33;11.02;;;;;;;25.05;55.05;101214.66;5040322;28;20056;-71
2022/10/08 01:25:31;;;;;;;17.42;11.20;;;;;;;24.95;55.52;101221.94;5038478;28;20045;-70
2022/10/08 01:27:27;;;;;;;17.13;11.13;;;;;;;24.82;55.92;101218.69;5034493;28;20067;-71
2022/10/08 01:29:57;;;;;;;16.42;10.80;;;;;;;24.72;56.75;101217.16;5042017;28;20072;-71
2022/10/08 01:32:33;;;;;;;16.02;10.95;;;;;;;24.62;56.61;101220.91;5047647;28;20045;-71
2022/10/08 01:35:05;;;;;;;20.75;12.65;;;;;;;24.50;57.49;101221.16;5045873;28;20451;-71
2022/10/08 01:37:38;;;;;;;20.20;13.32;;;;;;;24.40;58.05;101221.31;5045482;28;20045;-71
2022/10/08 01:40:11;;;;;;;16.95;11.98;;;;;;;24.29;58.46;101220.66;5044732;28;20049;-71
2022/10/08 01:42:41;;;;;;;16.80;11.55;;;;;;;24.19;58.20;101227.03;5045779;28;20505;-70
2022/10/08 01:45:14;;;;;;;17.60;10.60;;;;;;;24.09;58.77;101231.63;5048936;28;20512;-70
2022/10/08 01:47:46;;;;;;;21.08;12.48;;;;;;;23.97;59.53;101238.00;5041328;28;20048;-70
2022/10/08 01:50:19;;;;;;;19.83;12.13;;;;;;;23.82;59.51;101233.91;5037281;28;20049;-70
2022/10/08 01:52:52;;;;;;;17.33;11.65;;;;;;;23.72;60.55;101236.69;5040562;28;20057;-68
2022/10/08 01:55:26;;;;;;;15.57;11.30;;;;;;;23.60;60.88;101241.28;5041811;28;20053;-70
2022/10/08 01:58:02;;;;;;;23.73;12.65;;;;;;;23.48;61.72;101241.50;5043724;28;20048;-70
2022/10/08 02:00:34;;;;;;;17.20;12.50;;;;;;;23.37;61.99;101246.94;5040324;28;20048;-69
2022/10/08 02:03:03;;;;;;;18.48;10.85;;;;;;;23.26;63.03;101243.59;5045918;28;20051;-69
2022/10/08 02:05:36;;;;;;;19.40;12.32;;;;;;;23.14;63.82;101249.06;5043285;28;20048;-69
2022/10/08 02:08:05;;;;;;;21.75;12.60;;;;;;;23.05;64.66;101250.06;5036699;28;20052;-70
2022/10/08 02:10:34;;;;;;;17.30;12.55;;;;;;;22.97;65.00;101255.38;5043386;28;20052;-70
2022/10/08 02:13:05;;;;;;;20.67;14.10;;;;;;;22.89;65.58;101259.06;5042039;28;20053;-70
2022/10/08 02:15:43;;;;;;;19.83;13.60;;;;;;;22.80;65.81;101260.91;5036886;28;20053;-70
2022/10/08 02:18:17;;;;;;;21.00;13.00;;;;;;;22.72;66.46;101259.25;5044937;28;20049;-70
2022/10/08 02:20:53;;;;;;;18.40;11.95;;;;;;;22.62;65.76;101263.78;5043722;28;20061;-70
2022/10/08 02:23:26;;;;;;;17.85;11.63;;;;;;;22.54;65.37;101262.97;5041015;28;20057;-69
2022/10/08 02:25:58;;;;;;;22.77;12.52;;;;;;;22.45;66.34;101269.25;5041547;28;20045;-69
2022/10/08 02:28:32;;;;;;;23.27;12.60;;;;;;;22.34;67.10;101269.38;5045162;28;20053;-68
2022/10/08 02:31:06;;;;;;;19.10;11.23;;;;;;;22.26;67.85;101273.84;5045119;27;20112;-69
2022/10/08 02:33:40;;;;;;;16.67;11.18;;;;;;;22.18;68.04;101278.31;5039659;28;20053;-68
2022/10/08 02:36:11;;;;;;;14.43;10.90;;;;;;;22.09;67.82;101275.78;5043313;28;20832;-69
2022/10/08 02:38:43;;;;;;;21.25;11.18;;;;;;;22.00;68.86;101281.13;5041536;28;20052;-69
2022/10/08 02:41:14;;;;;;;19.95;11.88;;;;;;;21.91;68.20;101277.69;5044713;28;20497;-69
2022/10/08 02:43:48;;;;;;;19.50;12.75;;;;;;;21.82;69.64;101276.91;5052389;28;20041;-69
2022/10/08 02:46:19;;;;;;;18.45;12.85;;;;;;;21.76;70.58;101283.06;5045412;28;20060;-68
2022/10/08 02:48:54;;;;;;;21.40;12.30;;;;;;;21.69;70.47;101276.09;5044671;28;20450;-69
2022/10/08 02:51:24;;;;;;;20.45;12.93;;;;;;;21.63;70.80;101281.44;5041051;28;20081;-69
2022/10/08 02:53:53;;;;;;;20.02;12.82;;;;;;;21.56;70.91;101290.28;5047817;28;20076;-69
2022/10/08 02:56:26;;;;;;;20.88;13.52;;;;;;;21.49;70.17;101281.56;5042668;28;20045;-69
2022/10/08 02:58:56;;;;;;;22.98;12.60;;;;;;;21.42;71.25;101290.38;5039332;28;20041;-69
2022/10/08 03:01:38;;;;;;;19.55;12.57;;;;;;;21.35;71.80;101294.78;5037853;28;20612;-69
2022/10/08 03:04:11;;;;;;;21.05;12.15;;;;;;;21.22;71.13;101298.38;5045761;28;20595;-68
2022/10/08 03:06:40;;;;;;;20.58;12.70;;;;;;;21.10;71.60;101294.91;5046633;28;20049;-69
2022/10/08 03:09:11;;;;;;;22.25;11.95;;;;;;;21.02;73.28;101299.34;5049795;28;20049;-69
2022/10/08 03:11:40;;;;;;;18.92;12.70;;;;;;;20.97;73.13;101301.13;5044500;28;20045;-69
2022/10/08 03:14:14;;;;;;;21.30;12.88;;;;;;;20.93;73.73;101302.00;5046760;28;20560;-69
2022/10/08 03:16:45;;;;;;;24.15;12.75;;;;;;;20.87;73.74;101299.44;5037854;28;20576;-68
2022/10/08 03:19:16;;;;;;;20.20;12.68;;;;;;;20.80;72.75;101298.56;5047502;28;20498;-68
2022/10/08 03:21:47;;;;;;;26.88;14.90;;;;;;;20.73;73.69;101296.84;5041774;28;20053;-68
2022/10/08 03:24:16;;;;;;;17.38;12.23;;;;;;;20.66;73.09;101306.50;5039781;28;20068;-67
2022/10/08 03:26:45;;;;;;;20.38;13.85;;;;;;;20.61;73.46;101305.63;5043555;28;20053;-67
2022/10/08 03:29:15;;;;;;;21.83;13.40;;;;;;;20.56;74.35;101303.88;5048856;28;20049;-70
2022/10/08 03:31:44;;;;;;;18.75;12.05;;;;;;;20.51;74.01;101307.38;5046114;27;20577;-72
2022/10/08 03:34:13;;;;;;;22.27;13.15;;;;;;;20.43;74.32;101306.56;5046298;28;20037;-71
2022/10/08 03:36:41;;;;;;;22.38;14.23;;;;;;;20.36;74.75;101301.28;5042514;28;20060;-69
2022/10/08 03:39:11;;;;;;;25.92;14.15;;;;;;;20.32;74.37;101305.69;5040784;28;20041;-69
2022/10/08 03:41:41;;;;;;;24.17;16.00;;;;;;;20.23;74.42;101306.59;5042942;28;20053;-69
2022/10/08 03:44:11;;;;;;;22.45;15.90;;;;;;;20.19;75.13;101315.34;5043552;28;20056;-68
2022/10/08 03:46:41;;;;;;;27.30;15.40;;;;;;;20.16;75.72;101324.97;5050670;28;20045;-68
2022/10/08 03:49:09;;;;;;;24.63;14.68;;;;;;;20.10;75.57;101325.84;5041731;28;20096;-71
2022/10/08 03:51:38;;;;;;;21.60;13.70;;;;;;;20.00;75.66;101313.63;5039885;28;20042;-71
2022/10/08 03:54:07;;;;;;;21.83;15.07;;;;;;;20.02;75.32;101327.59;5038777;28;20049;-68
2022/10/08 03:56:35;;;;;;;22.42;14.63;;;;;;;19.99;75.75;101327.59;5040821;28;20049;-68
2022/10/08 03:59:04;;;;;;;24.33;15.13;;;;;;;19.96;75.45;101328.50;5039953;28;20057;-69
2022/10/08 04:01:32;;;;;;;20.52;14.30;;;;;;;19.95;76.07;101331.09;5044347;28;20503;-70
2022/10/08 04:04:03;;;;;;;28.88;18.92;;;;;;;19.89;75.68;101332.00;5038645;28;20076;-69
2022/10/08 04:06:31;;;;;;;29.63;19.42;;;;;;;19.85;75.40;101331.09;5044824;28;20474;-68
2022/10/08 04:09:01;;;;;;;28.52;16.13;;;;;;;19.81;75.49;101338.97;5046299;28;20053;-68
2022/10/08 04:11:30;;;;;;;26.67;15.30;;;;;;;19.73;74.98;101341.63;5040627;28;20121;-68
2022/10/08 04:13:58;;;;;;;24.90;15.52;;;;;;;19.66;75.50;101334.56;5046112;28;20053;-68
2022/10/08 04:16:27;;;;;;;26.58;17.65;;;;;;;19.58;75.38;101328.44;5037134;28;20049;-67
2022/10/08 04:18:55;;;;;;;26.63;15.35;;;;;;;19.51;75.97;101330.16;5044973;28;20052;-68
2022/10/08 04:21:25;;;;;;;24.77;16.20;;;;;;;19.41;75.64;101323.16;5042708;28;20553;-68
2022/10/08 04:23:54;;;;;;;32.53;18.08;;;;;;;19.41;75.78;101337.16;5040985;28;20506;-68
2022/10/08 04:26:23;;;;;;;24.30;16.63;;;;;;;19.37;76.12;101337.13;5044437;28;20049;-68
2022/10/08 04:28:51;;;;;;;30.70;19.40;;;;;;;19.34;75.86;101335.38;5043326;28;20099;-68
2022/10/08 04:31:22;;;;;;;29.45;18.20;;;;;;;19.32;75.78;101339.75;5043132;28;20053;-68
2022/10/08 04:33:52;;;;;;;29.35;17.75;;;;;;;19.30;75.76;101336.25;5043999;28;20080;-67
2022/10/08 04:36:22;;;;;;;29.25;19.15;;;;;;;19.30;75.61;101340.63;5037945;28;20041;-68
2022/10/08 04:38:53;;;;;;;29.58;17.13;;;;;;;19.23;75.22;101339.72;5032796;28;20056;-69
2022/10/08 04:41:23;;;;;;;27.92;18.45;;;;;;;19.20;75.57;101342.34;5046703;28;20049;-68
2022/10/08 04:43:53;;;;;;;28.67;19.40;;;;;;;19.12;75.86;101333.56;5042322;28;20052;-68
2022/10/08 04:46:23;;;;;;;27.73;17.70;;;;;;;19.07;76.17;101344.03;5036437;28;20049;-68
2022/10/08 04:48:53;;;;;;;28.75;16.70;;;;;;;19.04;75.95;101344.03;5043384;28;20128;-68
2022/10/08 04:51:23;;;;;;;24.05;16.48;;;;;;;18.98;75.36;101339.63;5033176;28;20046;-68
2022/10/08 04:53:55;;;;;;;27.05;16.67;;;;;;;18.93;76.22;101341.34;5039112;28;20076;-69
2022/10/08 04:56:25;;;;;;;26.40;17.73;;;;;;;18.87;76.08;101345.69;5032580;28;20132;-67
2022/10/08 04:58:55;;;;;;;24.88;17.02;;;;;;;18.83;76.38;101347.44;5034766;28;20059;-68
2022/10/08 05:01:24;;;;;;;25.15;14.13;;;;;;;18.77;76.18;101355.25;5039537;28;20049;-67
2022/10/08 05:03:54;;;;;;;27.45;16.55;;;;;;;18.70;76.43;101351.69;5041034;28;20129;-68
2022/10/08 05:06:24;;;;;;;24.25;15.10;;;;;;;18.63;77.59;101350.78;5048981;28;20051;-67
2022/10/08 05:08:55;;;;;;;23.77;14.00;;;;;;;18.57;77.76;101352.50;5040355;28;20049;-68
2022/10/08 05:11:26;;;;;;;25.33;15.73;;;;;;;18.48;79.21;101360.28;5039194;28;20049;-67
2022/10/08 05:13:56;;;;;;;23.65;14.45;;;;;;;18.40;78.79;101355.00;5038685;28;20049;-68
2022/10/08 05:16:26;;;;;;;22.90;14.18;;;;;;;18.36;79.34;101358.47;5045597;28;20069;-68
2022/10/08 05:18:56;;;;;;;18.73;12.65;;;;;;;18.32;79.13;101357.56;5046445;28;20174;-67
2022/10/08 05:21:27;;;;;;;24.90;15.20;;;;;;;18.27;79.23;101361.03;5045185;28;20497;-67
2022/10/08 05:23:59;;;;;;;26.85;14.90;;;;;;;18.20;79.85;101360.09;5042913;28;20049;-68
2022/10/08 05:26:29;;;;;;;22.90;14.15;;;;;;;18.14;79.76;101358.31;5049845;28;20072;-68
2022/10/08 05:28:59;;;;;;;24.13;12.32;;;;;;;18.08;80.64;101353.03;5045055;28;20052;-68
2022/10/08 05:31:29;;;;;;;31.08;14.52;;;;;;;18.06;80.94;101360.00;5041385;28;20114;-68
2022/10/08 05:34:00;;;;;;;23.95;12.85;;;;;;;18.02;80.76;101360.81;5045380;28;20052;-68
2022/10/08 05:36:31;;;;;;;21.35;11.95;;;;;;;17.92;82.31;101359.00;5036993;28;20446;-68
2022/10/08 05:39:05;;;;;;;21.10;13.25;;;;;;;17.87;81.86;101363.31;5044422;28;20941;-67
2022/10/08 05:41:35;;;;;;;24.90;15.13;;;;;;;17.84;81.70;101358.03;5047960;28;20057;-68
2022/10/08 05:44:06;;;;;;;25.95;16.13;;;;;;;17.76;82.40;101369.28;5044844;28;20073;-68
2022/10/08 05:46:36;;;;;;;21.92;13.45;;;;;;;17.69;83.26;101370.09;5046983;28;20052;-68
2022/10/08 05:49:07;;;;;;;23.70;14.52;;;;;;;17.64;83.53;101371.78;5045253;28;20108;-68
2022/10/08 05:51:37;;;;;;;21.90;13.77;;;;;;;17.59;84.18;101369.13;5040666;28;20049;-68
2022/10/08 05:54:07;;;;;;;26.67;13.98;;;;;;;17.57;84.24;101375.22;5044899;28;20055;-68
2022/10/08 05:56:36;;;;;;;27.13;12.70;;;;;;;17.48;85.66;101368.13;5044630;28;21349;-68
2022/10/08 05:59:05;;;;;;;27.25;14.93;;;;;;;17.40;85.87;101372.38;5040853;28;20824;-68
2022/10/08 06:01:34;;;;;;;25.55;14.30;;;;;;;17.35;86.74;101374.09;5043777;28;20036;-68
2022/10/08 06:04:05;;;;;;;20.50;12.85;;;;;;;17.28;87.12;101373.13;5039105;28;20053;-69
2022/10/08 06:06:36;;;;;;;24.90;14.43;;;;;;;17.26;85.70;101366.13;5061391;28;20127;-68
2022/10/08 06:09:08;;;;;;;23.10;12.18;;;;;;;17.25;85.56;101375.72;5057250;28;20151;-67
2022/10/08 06:11:37;;;;;;;28.10;12.63;;;;;;;17.25;85.85;101383.56;5065123;28;21024;-68
2022/10/08 06:14:07;;;;;;;29.63;13.27;;;;;;;17.27;85.69;101386.19;5058798;28;20036;-68
2022/10/08 06:16:36;;;;;;;22.80;11.35;;;;;;;17.25;84.74;101369.59;5053607;28;20652;-68
2022/10/08 06:19:05;;;;;;;24.88;13.13;;;;;;;17.25;85.46;101388.81;5056796;28;20044;-67
2022/10/08 06:21:35;;;;;;;17.88;10.90;;;;;;;17.24;85.16;101375.69;5054338;28;20041;-69
2022/10/08 06:24:08;;;;;;;20.35;12.23;;;;;;;17.16;85.59;101386.06;5061183;28;20056;-68
2022/10/08 06:26:38;;;;;;;20.13;11.18;;;;;;;17.08;85.97;101374.63;5062026;28;20778;-68
2022/10/08 06:29:07;;;;;;;20.23;10.68;;;;;;;17.06;85.74;101397.25;5069405;28;20045;-67
2022/10/08 06:31:36;;;;;;;21.45;11.48;;;;;;;17.04;85.60;101393.75;5056959;28;20041;-68
2022/10/08 06:34:05;;;;;;;21.42;12.30;;;;;;;17.02;85.61;101390.22;5039631;28;20056;-68
2022/10/08 06:36:35;;;;;;;18.08;10.85;;;;;;;16.98;85.53;101396.28;5038162;28;20050;-68
2022/10/08 06:39:08;;;;;;;18.85;10.45;;;;;;;16.95;85.38;101397.13;5042579;28;20143;-68
2022/10/08 06:41:36;;;;;;;19.75;11.23;;;;;;;16.90;86.02;101397.03;5047526;28;20056;-68
2022/10/08 06:44:07;;;;;;;22.00;12.00;;;;;;;16.86;85.41;101400.50;5031492;28;20622;-68
2022/10/08 06:46:35;;;;;;;21.00;11.32;;;;;;;16.81;85.49;101407.38;5043740;28;20045;-68
2022/10/08 06:49:05;;;;;;;24.05;11.48;;;;;;;16.79;86.01;101408.16;5040702;28;20052;-69
2022/10/08 06:51:34;;;;;;;20.08;11.63;;;;;;;16.77;85.97;101410.78;5043116;28;20103;-68
2022/10/08 06:54:03;;;;;;;28.40;12.90;;;;;;;16.72;87.19;101408.09;5036928;28;20071;-68
2022/10/08 06:56:34;;;;;;;22.52;12.07;;;;;;;16.69;86.38;101407.16;5045670;28;20075;-68
2022/10/08 06:59:03;;;;;;;24.27;12.80;;;;;;;16.62;86.46;101408.81;5037798;28;20410;-68
2022/10/08 07:01:32;;;;;;;25.35;13.55;;;;;;;16.58;87.51;101403.50;5039841;28;20052;-68
2022/10/08 07:04:01;;;;;;;23.25;11.90;;;;;;;16.58;87.33;101406.13;5047155;28;20049;-68
2022/10/08 07:06:30;;;;;;;22.20;13.15;;;;;;;16.54;87.16;101403.47;5043220;28;20053;-68
2022/10/08 07:09:01;;;;;;;23.05;13.25;;;;;;;16.51;86.53;101403.41;5046542;28;20471;-68
2022/10/08 07:11:31;;;;;;;22.92;12.93;;;;;;;16.48;86.99;101407.72;5042444;28;20051;-68
2022/10/08 07:14:01;;;;;;;25.20;12.60;;;;;;;16.44;87.64;101409.41;5045308;28;20055;-68
2022/10/08 07:16:30;;;;;;;28.60;13.60;;;;;;;16.40;87.82;101415.44;5043089;28;20457;-68
2022/10/08 07:18:59;;;;;;;22.17;12.07;;;;;;;16.38;87.26;101409.31;5039102;28;20510;-68
2022/10/08 07:21:28;;;;;;;20.73;11.63;;;;;;;16.32;88.02;101412.69;5039438;28;20045;-68
2022/10/08 07:23:59;;;;;;;22.65;12.55;;;;;;;16.28;87.79;101412.63;5039275;28;20122;-68
2022/10/08 07:26:29;;;;;;;25.38;13.02;;;;;;;16.26;87.92;101406.50;5037721;28;20048;-68
2022/10/08 07:29:01;;;;;;;22.27;11.88;;;;;;;16.23;88.58;101415.16;5040453;28;20056;-68
2022/10/08 07:31:31;;;;;;;17.58;10.68;;;;;;;16.18;88.85;101405.50;5034797;28;20414;-67
2022/10/08 07:34:01;;;;;;;19.42;10.40;;;;;;;16.10;89.36;101405.34;5043583;28;20059;-68
2022/10/08 07:36:31;;;;;;;24.35;10.98;;;;;;;16.07;88.51;101400.97;5041017;28;20422;-68
2022/10/08 07:39:01;;;;;;;21.52;10.52;;;;;;;16.04;89.45;101406.13;5043477;28;20312;-68
2022/10/08 07:41:30;;;;;;;21.70;11.73;;;;;;;16.04;88.84;101402.66;5044971;28;20123;-68
2022/10/08 07:44:02;;;;;;;21.13;11.65;;;;;;;16.02;89.01;101401.75;5040309;28;20057;-68
2022/10/08 07:46:33;;;;;;;19.02;10.70;;;;;;;15.98;88.49;101408.63;5036908;28;20073;-68
2022/10/08 07:49:02;;;;;;;25.80;11.55;;;;;;;15.95;89.21;101407.72;5046333;28;20099;-68
2022/10/08 07:51:32;;;;;;;23.58;11.00;;;;;;;15.90;88.70;101405.91;5042747;28;21176;-67
2022/10/08 07:54:01;;;;;;;18.73;11.20;;;;;;;15.87;88.97;101412.78;5036276;28;20057;-68
2022/10/08 07:56:29;;;;;;;19.13;10.45;;;;;;;15.83;88.65;101405.75;5044116;28;20045;-68
2022/10/08 07:59:01;;;;;;;19.13;9.95;;;;;;;15.80;89.02;101397.84;5046329;28;20053;-68
2022/10/08 08:01:31;;;;;;;19.20;11.55;;;;;;;15.77;88.91;101405.66;5039559;28;20506;-68
2022/10/08 08:04:01;;;;;;;17.90;9.93;;;;;;;15.73;88.86;101403.81;5037636;28;20099;-67
2022/10/08 08:06:30;;;;;;;17.58;9.35;;;;;;;15.70;89.72;101405.50;5038156;28;20053;-67
2022/10/08 08:09:01;;;;;;;21.35;10.02;;;;;;;15.68;89.02;101403.69;5037342;28;20799;-68
2022/10/08 08:11:30;;;;;;;20.55;11.27;;;;;;;15.64;89.66;101410.56;5037973;28;20599;-68
2022/10/08 08:14:01;;;;;;;18.13;10.90;;;;;;;15.62;89.50;101412.31;5042441;28;20056;-68
2022/10/08 08:16:30;;;;;;;24.33;9.82;;;;;;;15.59;89.45;101407.00;5042657;28;20593;-68
2022/10/08 08:19:00;;;;;;;26.63;10.32;;;;;;;15.57;89.54;101411.31;5051584;28;20049;-68
2022/10/08 08:21:31;;;;;;;24.33;10.30;;;;;;;15.53;89.68;101414.72;5054706;28;20048;-68
2022/10/08 08:24:04;;;;;;;22.45;11.13;;;;;;;15.52;90.51;101410.34;5059711;28;20525;-68
2022/10/08 08:26:34;;;;;;;18.05;10.02;;;;;;;15.48;89.84;101409.44;5062384;28;20124;-68
2022/10/08 08:29:06;;;;;;;17.63;10.00;;;;;;;15.46;89.68;101413.72;5062721;28;20060;-68
2022/10/08 08:31:36;;;;;;;15.63;9.05;;;;;;;15.45;89.30;101413.69;5057423;28;20056;-68
2022/10/08 08:34:07;;;;;;;15.82;8.82;;;;;;;15.41;88.71;101417.06;5036638;28;20057;-68
2022/10/08 08:36:37;;;;;;;16.75;10.20;;;;;;;15.38;88.64;101414.41;5043531;28;20052;-68
2022/10/08 08:39:07;;;;;;;16.17;10.10;;;;;;;15.34;88.65;101420.41;5044200;28;20649;-68
2022/10/08 08:41:52;;;;;;;17.45;8.55;;;;;;;15.27;89.87;101420.28;5034531;28;20513;-68
2022/10/08 08:44:25;;;;;;;17.08;9.70;;;;;;;15.19;90.11;101410.56;5046284;28;20055;-68
2022/10/08 08:47:00;;;;;;;19.48;9.57;;;;;;;15.17;89.80;101413.13;5027561;28;20056;-68
2022/10/08 08:49:33;;;;;;;16.90;9.48;;;;;;;15.15;89.73;101414.81;5035294;28;20510;-68
2022/10/08 08:52:04;;;;;;;18.90;8.82;;;;;;;15.12;89.93;101416.47;5034626;28;20037;-68
2022/10/08 08:54:33;;;;;;;18.58;9.20;;;;;;;15.10;88.96;101426.88;5042006;28;20143;-68
2022/10/08 08:57:16;;;;;;;20.02;8.95;;;;;;;15.09;88.61;101414.69;5036399;28;20045;-68
2022/10/08 08:59:49;;;;;;;20.13;10.20;;;;;;;15.07;89.47;101418.97;5040774;28;20107;-68
2022/10/08 09:02:24;;;;;;;18.95;9.68;;;;;;;15.03;89.03;101425.00;5041208;28;20058;-68
2022/10/08 09:04:59;;;;;;;18.58;8.70;;;;;;;15.01;90.13;101429.28;5036906;28;20435;-68
2022/10/08 09:07:42;;;;;;;18.65;10.30;;;;;;;14.97;90.50;101430.06;5038381;28;20077;-68
2022/10/08 09:10:18;;;;;;;15.15;8.52;;;;;;;14.95;89.89;101431.75;5041374;28;20460;-68
2022/10/08 09:12:48;;;;;;;18.17;9.63;;;;;;;14.91;88.80;101430.78;5035917;28;20052;-68
2022/10/08 09:15:21;;;;;;;17.05;9.65;;;;;;;14.86;90.24;101438.50;5034330;28;20045;-68
2022/10/08 09:17:52;;;;;;;;;;;;;;;14.83;89.97;101441.03;5041053;28;20063;-68
2022/10/08 09:20:23;;;;;;;16.05;9.07;;;;;;;14.80;89.02;101443.59;5039505;28;20441;-67
2022/10/08 09:22:52;;;;;;;25.70;9.48;;;;;;;14.74;89.95;101447.78;5033782;28;21185;-68
2022/10/08 09:25:24;;;;;;;17.10;8.52;;;;;;;14.66;90.45;101445.00;5035463;28;20050;-68
2022/10/08 09:27:55;;;;;;;17.73;9.30;;;;;;;14.63;90.93;101442.28;5036800;28;20042;-68
2022/10/08 09:30:39;;;;;;;18.60;9.20;;;;;;;14.61;91.23;101442.28;5046542;28;20052;-68
2022/10/08 09:33:22;;;;;;;22.08;9.48;;;;;;;14.60;90.63;101444.84;5043830;28;20045;-68
2022/10/08 09:35:50;;;;;;;;;;;;;;;14.59;90.77;101443.06;5042919;28;20079;-68
2022/10/08 09:38:24;;;;;;;25.67;9.88;;;;;;;14.53;90.72;101442.91;5041499;28;20397;-68
2022/10/08 09:41:04;;;;;;;16.50;9.73;;;;;;;14.51;90.71;101444.59;5043727;28;20049;-68
2022/10/08 09:43:39;;;;;;;19.45;9.80;;;;;;;14.49;91.09;101447.13;5032253;28;20446;-68
2022/10/08 09:46:29;;;;;;;17.83;9.13;;;;;;;14.47;91.72;101433.19;5041594;28;20601;-69
2022/10/08 09:49:18;;;;;;;15.30;9.13;;;;;;;14.43;91.61;101442.69;5038520;28;20438;-68
2022/10/08 09:51:46;;;;;;;18.58;10.52;;;;;;;14.40;91.41;101446.91;5038094;28;20044;-68
2022/10/08 09:54:23;;;;;;;18.35;8.68;;;;;;;14.37;91.55;101441.63;5039491;28;20053;-68
2022/10/08 09:56:54;;;;;;;20.10;9.63;;;;;;;14.36;91.05;101434.66;5039129;28;20061;-68
2022/10/08 09:59:25;;;;;;;14.93;9.30;;;;;;;14.33;91.47;101440.66;5042992;28;20387;-69
2022/10/08 10:01:57;;;;;;;17.67;8.70;;;;;;;14.31;90.41;101442.34;5041590;28;20056;-68
2022/10/08 10:04:33;;;;;;;16.58;9.07;;;;;;;14.26;91.16;101433.56;5045404;28;20299;-68
2022/10/08 10:07:02;;;;;;;16.20;8.45;;;;;;;14.21;91.92;101440.38;5040580;28;20501;-68
2022/10/08 10:09:44;;;;;;;17.00;8.63;;;;;;;14.19;91.22;101442.94;5046628;28;20049;-68
2022/10/08 10:12:25;;;;;;;16.30;8.98;;;;;;;14.17;91.76;101431.59;5045895;28;20044;-68
2022/10/08 10:14:58;;;;;;;15.02;8.18;;;;;;;14.16;91.30;101435.06;5041948;28;20061;-68
2022/10/08 10:17:43;;;;;;;21.80;9.77;;;;;;;14.12;90.43;101438.41;5040457;28;20055;-68
2022/10/08 10:20:17;;;;;;;20.70;9.38;;;;;;;14.10;90.81;101431.41;5047085;28;20127;-68
2022/10/08 10:22:53;;;;;;;15.57;8.68;;;;;;;14.08;90.92;101439.16;5048261;28;20136;-68
2022/10/08 10:25:30;;;;;;;18.15;9.82;;;;;;;14.06;91.54;101439.97;5051978;28;20518;-67
2022/10/08 10:28:04;;;;;;;20.95;9.35;;;;;;;14.04;91.88;101435.63;5035163;28;20053;-68
2022/10/08 10:30:43;;;;;;;19.80;9.93;;;;;;;14.01;91.55;101438.13;5046062;28;20053;-68
2022/10/08 10:33:18;;;;;;;19.27;9.20;;;;;;;13.99;90.54;101438.91;5040687;28;20045;-68
2022/10/08 10:35:51;;;;;;;20.80;9.20;;;;;;;13.94;90.61;101436.19;5040369;28;20057;-68
2022/10/08 10:38:26;;;;;;;18.88;8.45;;;;;;;13.91;91.38;101433.53;5043736;28;20049;-68
2022/10/08 10:41:10;;;;;;;15.95;9.43;;;;;;;13.89;91.55;101431.72;5046042;28;20089;-68
2022/10/08 10:43:47;;;;;;;24.10;9.80;;;;;;;13.86;91.73;101437.72;5040782;28;20045;-67
2022/10/08 10:46:25;;;;;;;22.95;9.35;;;;;;;13.82;90.66;101438.47;5046246;28;20049;-68
2022/10/08 10:48:56;;;;;;;16.48;8.82;;;;;;;13.78;91.82;101434.03;5045859;28;20490;-67
2022/10/08 10:51:50;;;;;;;15.35;8.13;;;;;;;13.75;91.88;101442.63;5038266;28;20051;-67
2022/10/08 10:54:43;;;;;;;14.10;9.10;;;;;;;13.73;91.17;101436.50;5042935;28;20132;-67
2022/10/08 10:57:18;;;;;;;16.10;8.60;;;;;;;13.70;90.36;101436.44;5042882;28;20040;-67
2022/10/08 10:59:52;;;;;;;13.50;8.13;;;;;;;13.67;90.39;101438.06;5041353;28;20434;-68
2022/10/08 11:02:27;;;;;;;20.13;9.98;;;;;;;13.65;90.91;101442.31;5041463;28;20053;-68
2022/10/08 11:05:07;;;;;;;19.52;9.23;;;;;;;13.62;90.06;101443.13;5037042;28;20118;-68
2022/10/08 11:08:02;;;;;;;18.85;8.88;;;;;;;13.59;90.66;101448.25;5042232;28;20742;-68
2022/10/08 11:10:43;;;;;;;16.40;9.02;;;;;;;13.56;91.92;101441.25;5029511;28;20124;-68
2022/10/08 11:13:25;;;;;;;16.33;8.27;;;;;;;13.53;91.66;101443.75;5037836;28;20678;-68
2022/10/08 11:16:07;;;;;;;16.55;8.88;;;;;;;13.47;92.23;101442.69;5040998;28;20037;-68
2022/10/08 11:18:46;;;;;;;17.98;9.65;;;;;;;13.44;92.47;101451.28;5037244;28;20431;-69
2022/10/08 11:21:29;;;;;;;21.88;8.55;;;;;;;13.42;92.42;101460.75;5038458;28;20391;-68
2022/10/08 11:24:29;;;;;;;13.57;7.78;;;;;;;13.39;92.05;101452.88;5043363;28;20135;-68
2022/10/08 11:27:05;;;;;;;16.10;8.65;;;;;;;13.37;92.43;101451.94;5039793;28;20045;-69
2022/10/08 11:29:39;;;;;;;15.70;8.88;;;;;;;13.35;91.83;101443.22;5040540;28;20048;-69
2022/10/08 11:32:13;;;;;;;18.42;9.32;;;;;;;13.35;92.56;101440.63;5041501;28;20067;-68
2022/10/08 11:34:49;;;;;;;17.25;8.85;;;;;;;13.33;92.25;101444.88;5042081;28;20458;-68